Aérodrome :
LOGIN :

S'inscrire | Disclaimer

   EN    FR    IT 

 










Légende :    VFR   VFR Marginal   IFR   IFR Intensif   IFR Très Intensif
Visi : 
Plafond : 
>= 8 km
>= 3000ft
5 à 8 km
1000 à 3000 ft
1500m à 5 km
500 à 1000 ft
800 à 1500m
200 à 500 ft
< 800m
< 200 ft
Symboles :   Orages  Brouillard  Fortes neiges  Fortes précipitations  Vent > 20 kt
SIGMETs :   Divers  Orages  Givrage  Turbulence  Onde Orograph.  Cendres Volcan.






- Altitude de l'aérodrome : 364 ft


LFAQ - Albert Bray

DERNIER METAR :
  • 280600Z AUTO 30009KT 9999 OVC006 13/12 Q1009 TEMPO 2000 DZRA OVC003

METARs EXPIRÉS :
  • 280530Z AUTO 31009KT 9999 -DZ OVC008 13/13 Q1009 TEMPO 2000 DZRA OVC003
  • 280500Z AUTO 32010KT 9999 -RA OVC007 13/12 Q1009
  • 280430Z AUTO 32011KT 9999 -RA OVC006 13/13 Q1009
  • 280400Z AUTO 32011KT 9999 OVC006 13/13 Q1008
  • 280330Z AUTO 32011KT 9999 OVC006 13/13 Q1008

TAF TAF LFAQ
Valide du 28 à 06h jusqu'au 28 à 15h UTC


280500Z 2806/2815 31012KT 9999 OVC007
TEMPO 2806/2813 2000 DZRA OVC003
BECMG 2813/2815 BKN020



MET'MAP, la Météo Aéronautique d'un coup d'oeil ! - Copyright ORBIFLY Décembre 2007 - Disclaimer

ORBIFLY MET'MAP TEAM :

Programmation & Développement : Alexandra Zaïnal
Sur une idée originale de : Baudouin d'Aumeries
Assistance à la programmation : Marc-Olivier Méhu
Soutien technique & logistique : Manuel Goepfert

Contact : metmap@orbifly.com




SOURCES & CREDITS :

   NOAA